^^
Meteo Knjazevac Station Historical Data
Daily Summary for June 25, 2021 Units:  English    Metric   Both
Daily Weekly Monthly Yearly Custom
  High: Low: Average:
Temperature: 56.1 °F 28 °F 39.1 °F
Dew Point: 45.8 °F 26.5 °F 35.6 °F
Humidity: 99% 68% 88%
Wind Speed: 6mph 0mph 1.6mph
Wind Gust: 10mph - -
Wind- - SW
Pressure: 30.50 in 30.35 in -
Precipitation: 0.00 in    
Historical Graphs
 
 
Tabular Data for June 25, 2021
Time Temperature Dew Point Pressure Wind Wind Speed Wind Gust Humidity Rainfall Rate (Hourly) solar Conditions
00:00 34 °F 31.4 °F 30.47 in West 2 mph 5 mph 90% 0.00 in 0 W/m2
00:10 33.6 °F 31 °F 30.47 in West 1 mph 3 mph 90% 0.00 in 0 W/m2
00:20 33.4 °F 30.8 °F 30.47 in WNW 1 mph 2 mph 90% 0.00 in 0 W/m2
00:30 33.3 °F 30.6 °F 30.47 in WNW 1 mph 2 mph 90% 0.00 in 0 W/m2
00:40 33.1 °F 30.5 °F 30.47 in Calm   3 mph 90% 0.00 in 0 W/m2
00:50 32.7 °F 30.1 °F 30.47 in NW 1 mph 3 mph 90% 0.00 in 0 W/m2
01:00 32.4 °F 29.8 °F 30.47 in WNW 1 mph 3 mph 90% 0.00 in 0 W/m2
01:10 32.2 °F 29.8 °F 30.47 in WNW 2 mph 4 mph 91% 0.00 in 0 W/m2
01:20 32.2 °F 30.4 °F 30.47 in West 1 mph 4 mph 93% 0.00 in 0 W/m2
01:30 31.8 °F 29.8 °F 30.47 in West 2 mph 3 mph 92% 0.00 in 0 W/m2
01:40 31.6 °F 29.8 °F 30.47 in West 2 mph 4 mph 93% 0.00 in 0 W/m2
01:50 31.6 °F 30.1 °F 30.47 in WNW 2 mph 4 mph 94% 0.00 in 0 W/m2
02:00 31.5 °F 29.7 °F 30.47 in WNW 1 mph 2 mph 93% 0.00 in 0 W/m2
02:10 31.3 °F 29.5 °F 30.47 in West 2 mph 3 mph 93% 0.00 in 0 W/m2
02:20 31.5 °F 29.9 °F 30.47 in WNW 1 mph 3 mph 94% 0.00 in 0 W/m2
02:30 31.5 °F 30.2 °F 30.46 in Calm   3 mph 95% 0.00 in 0 W/m2
02:40 31.1 °F 29.3 °F 30.46 in West 2 mph 3 mph 93% 0.00 in 0 W/m2
02:50 30.9 °F 29.1 °F 30.47 in Calm   3 mph 93% 0.00 in 0 W/m2
03:00 30.8 °F 29.3 °F 30.47 in Calm   2 mph 94% 0.00 in 0 W/m2
03:10 30.6 °F 28.8 °F 30.47 in WNW 1 mph 2 mph 93% 0.00 in 0 W/m2
03:20 30.4 °F 28.6 °F 30.47 in West 1 mph 2 mph 93% 0.00 in 0 W/m2
03:30 30.2 °F 28.4 °F 30.47 in Calm   2 mph 93% 0.00 in 0 W/m2
03:40 30.1 °F 28.6 °F 30.46 in NNW 2 mph 2 mph 94% 0.00 in 0 W/m2
03:50 30 °F 28.5 °F 30.47 in NNW 1 mph 2 mph 94% 0.00 in 0 W/m2
04:00 30 °F 28.5 °F 30.47 in Calm   3 mph 94% 0.00 in 0 W/m2
04:10 29.8 °F 28.3 °F 30.46 in NW 1 mph 2 mph 94% 0.00 in 0 W/m2
04:20 29.8 °F 28.3 °F 30.46 in NNW 1 mph 2 mph 94% 0.00 in 0 W/m2
04:30 29.7 °F 28.1 °F 30.46 in WNW 2 mph 3 mph 94% 0.00 in 0 W/m2
04:40 29.5 °F 28 °F 30.47 in Calm   3 mph 94% 0.00 in 0 W/m2
04:50 29.5 °F 28 °F 30.47 in Calm   2 mph 94% 0.00 in 0 W/m2
05:00 29.3 °F 27.8 °F 30.47 in NW 1 mph 2 mph 94% 0.00 in 0 W/m2
05:10 29.1 °F 27.6 °F 30.47 in Calm   2 mph 94% 0.00 in 0 W/m2
05:20 28.9 °F 27.4 °F 30.47 in Calm   2 mph 94% 0.00 in 0 W/m2
05:30 28.9 °F 27.4 °F 30.46 in WNW 2 mph 3 mph 94% 0.00 in 0 W/m2
05:40 28.9 °F 27.7 °F 30.47 in WNW 3 mph 4 mph 95% 0.00 in 0 W/m2
05:50 29 °F 27.7 °F 30.47 in Calm   3 mph 95% 0.00 in 0 W/m2
06:00 28.9 °F 27.7 °F 30.47 in Calm   1 mph 95% 0.00 in 0 W/m2
06:10 28.8 °F 27.5 °F 30.47 in Calm     95% 0.00 in 0 W/m2
06:20 28.8 °F 27.3 °F 30.47 in North 1 mph 3 mph 94% 0.00 in 0 W/m2
06:30 28.6 °F 27.1 °F 30.47 in Calm   3 mph 94% 0.00 in 0 W/m2
06:40 28.4 °F 26.9 °F 30.47 in Calm   2 mph 94% 0.00 in 0 W/m2
06:50 28.4 °F 26.9 °F 30.47 in NW 1 mph 2 mph 94% 0.00 in 0 W/m2
07:00 28.1 °F 26.6 °F 30.47 in WNW 2 mph 2 mph 94% 0.00 in 5 W/m2
07:10 28 °F 26.8 °F 30.47 in NW 2 mph 3 mph 95% 0.00 in 11 W/m2
07:20 28 °F 26.5 °F 30.47 in NNW 1 mph 2 mph 94% 0.00 in 22 W/m2
07:30 28 °F 26.8 °F 30.48 in North 1 mph 2 mph 95% 0.00 in 38 W/m2
07:40 28 °F 26.8 °F 30.48 in Calm   1 mph 95% 0.00 in 56 W/m2
07:50 28 °F 26.8 °F 30.48 in Calm   2 mph 95% 0.00 in 74 W/m2
08:00 28 °F 26.8 °F 30.48 in Calm   1 mph 95% 0.00 in 98 W/m2
08:10 28.4 °F 27.2 °F 30.48 in Calm   1 mph 95% 0.00 in 118 W/m2
08:20 29.1 °F 28.1 °F 30.49 in WNW 1 mph 2 mph 96% 0.00 in 166 W/m2
08:30 30.2 °F 29.7 °F 30.49 in WNW 1 mph 2 mph 98% 0.00 in 145 W/m2
08:40 31.1 °F 30.6 °F 30.49 in WSW 1 mph 2 mph 98% 0.00 in 87 W/m2
08:50 31.6 °F 31.1 °F 30.49 in West 1 mph 3 mph 98% 0.00 in 91 W/m2
09:00 32.2 °F 31.7 °F 30.50 in West 1 mph 4 mph 98% 0.00 in 98 W/m2
09:10 32.7 °F 32.2 °F 30.49 in WNW 2 mph 3 mph 98% 0.00 in 105 W/m2
09:20 33.3 °F 32.8 °F 30.49 in NW 1 mph 3 mph 98% 0.00 in 112 W/m2
09:30 34 °F 33.4 °F 30.49 in Calm   3 mph 98% 0.00 in 115 W/m2
09:40 34.5 °F 34.3 °F 30.49 in WNW 1 mph 3 mph 99% 0.00 in 127 W/m2
09:50 35.1 °F 34.8 °F 30.49 in Calm   3 mph 99% 0.00 in 128 W/m2
10:00 35.7 °F 35.5 °F 30.49 in Calm   3 mph 99% 0.00 in 133 W/m2
10:10 36.3 °F 36.1 °F 30.49 in Calm   2 mph 99% 0.00 in 120 W/m2
10:20 36.9 °F 36.6 °F 30.49 in North 1 mph 4 mph 99% 0.00 in 156 W/m2
10:30 37.6 °F 37.3 °F 30.49 in NNE 2 mph 6 mph 99% 0.00 in 166 W/m2
10:40 38.1 °F 37.9 °F 30.49 in NNE 3 mph 6 mph 99% 0.00 in 149 W/m2
10:50 38.5 °F 38 °F 30.48 in NNE 3 mph 6 mph 98% 0.00 in 143 W/m2
11:00 38.8 °F 38.3 °F 30.48 in NNE 5 mph 7 mph 98% 0.00 in 170 W/m2
11:10 39.2 °F 38.7 °F 30.48 in NNE 1 mph 8 mph 98% 0.00 in 147 W/m2
11:20 39.7 °F 38.7 °F 30.48 in NNE 5 mph 8 mph 96% 0.00 in 170 W/m2
11:30 40.1 °F 39.1 °F 30.48 in NNE 3 mph 8 mph 96% 0.00 in 149 W/m2
11:40 40.5 °F 39.4 °F 30.48 in NNE 5 mph 7 mph 96% 0.00 in 149 W/m2
11:50 40.8 °F 39.5 °F 30.47 in North 3 mph 8 mph 95% 0.00 in 167 W/m2
12:00 41.2 °F 39.9 °F 30.47 in North 6 mph 9 mph 95% 0.00 in 161 W/m2
12:10 41.7 °F 40.4 °F 30.47 in North 2 mph 9 mph 95% 0.00 in 163 W/m2
12:20 41.9 °F 40.3 °F 30.46 in North 5 mph 8 mph 94% 0.00 in 180 W/m2
12:30 42.3 °F 40.7 °F 30.46 in NNE 2 mph 8 mph 94% 0.00 in 233 W/m2
12:40 43 °F 41.3 °F 30.45 in North 2 mph 5 mph 94% 0.00 in 252 W/m2
12:50 43.7 °F 41.8 °F 30.45 in North 3 mph 6 mph 93% 0.00 in 411 W/m2
13:00 45 °F 42.5 °F 30.44 in NNW 1 mph 6 mph 91% 0.00 in 513 W/m2
13:10 46.6 °F 43.8 °F 30.44 in NNW 3 mph 8 mph 90% 0.00 in 505 W/m2
13:20 47.7 °F 44.3 °F 30.43 in SW 3 mph 7 mph 88% 0.00 in 496 W/m2
13:30 48.4 °F 44.1 °F 30.43 in WSW 3 mph 6 mph 85% 0.00 in 485 W/m2
13:40 48.9 °F 44.3 °F 30.42 in SW 2 mph 6 mph 84% 0.00 in 472 W/m2
13:50 49.6 °F 44.7 °F 30.42 in SW 3 mph 6 mph 83% 0.00 in 458 W/m2
14:00 50.3 °F 45.4 °F 30.41 in SW 3 mph 6 mph 83% 0.00 in 443 W/m2
14:10 50.9 °F 44.9 °F 30.41 in SW 3 mph 7 mph 80% 0.00 in 426 W/m2
14:20 51.2 °F 45 °F 30.40 in WSW 2 mph 7 mph 79% 0.00 in 408 W/m2
14:30 51.8 °F 45.5 °F 30.40 in WSW 3 mph 6 mph 79% 0.00 in 389 W/m2
14:40 52.5 °F 45.8 °F 30.39 in WSW 3 mph 6 mph 78% 0.00 in 369 W/m2
14:50 53.2 °F 45.5 °F 30.39 in SW 3 mph 5 mph 75% 0.00 in 348 W/m2
15:00 54 °F 45.5 °F 30.38 in WNW 2 mph 5 mph 73% 0.00 in 326 W/m2
15:10 54.7 °F 45.8 °F 30.38 in NNW 1 mph 6 mph 72% 0.00 in 303 W/m2
15:20 55.2 °F 45.6 °F 30.37 in North 3 mph 7 mph 70% 0.00 in 279 W/m2
15:30 55.6 °F 45.2 °F 30.37 in NNW 3 mph 8 mph 68% 0.00 in 255 W/m2
15:40 55.9 °F 45.5 °F 30.37 in NNW 3 mph 7 mph 68% 0.00 in 230 W/m2
15:50 55.9 °F 45.5 °F 30.37 in NNW 5 mph 7 mph 68% 0.00 in 205 W/m2
16:00 55.9 °F 45.5 °F 30.36 in NNW 1 mph 7 mph 68% 0.00 in 180 W/m2
16:10 56.1 °F 45.7 °F 30.36 in NW 1 mph 7 mph 68% 0.00 in 153 W/m2
16:20 56.1 °F 45.7 °F 30.36 in NNE 3 mph 9 mph 68% 0.00 in 128 W/m2
16:30 56.1 °F 45.7 °F 30.36 in North 2 mph 7 mph 68% 0.00 in 99 W/m2
16:40 55.8 °F 45.4 °F 30.36 in NNW 1 mph 6 mph 68% 0.00 in 77 W/m2
16:50 55.4 °F 45 °F 30.36 in North 1 mph 6 mph 68% 0.00 in 57 W/m2
17:00 55 °F 44.7 °F 30.36 in North 5 mph 10 mph 68% 0.00 in 38 W/m2
17:10 54.5 °F 44.2 °F 30.36 in NNE 1 mph 10 mph 68% 0.00 in 20 W/m2
17:20 54.1 °F 44.2 °F 30.36 in NNE 2 mph 8 mph 69% 0.00 in 4 W/m2
17:30 53.4 °F 43.5 °F 30.36 in NNW 2 mph 4 mph 69% 0.00 in 6 W/m2
17:40 52.7 °F 42.8 °F 30.36 in NNW 3 mph 7 mph 69% 0.00 in 0 W/m2
17:50 52.2 °F 42.3 °F 30.35 in NNW 2 mph 9 mph 69% 0.00 in 0 W/m2
18:00 51.8 °F 42.3 °F 30.35 in Calm   3 mph 70% 0.00 in 0 W/m2
18:10 50.9 °F 42.2 °F 30.36 in NE 1 mph 5 mph 72% 0.00 in 0 W/m2
18:20 49.8 °F 41.9 °F 30.36 in SW 1 mph 3 mph 74% 0.00 in 0 W/m2
18:30 48.9 °F 42 °F 30.37 in South 1 mph 4 mph 77% 0.00 in 0 W/m2
18:40 48 °F 41.5 °F 30.37 in South 1 mph 2 mph 78% 0.00 in 0 W/m2
18:50 47.1 °F 40.9 °F 30.37 in NW 1 mph 3 mph 79% 0.00 in 0 W/m2
19:00 46.4 °F 40.6 °F 30.37 in SW 1 mph 2 mph 80% 0.00 in 0 W/m2
19:10 45.9 °F 40 °F 30.37 in WSW 1 mph 2 mph 80% 0.00 in 0 W/m2
19:20 45.1 °F 39.7 °F 30.37 in WSW 1 mph 2 mph 81% 0.00 in 0 W/m2
19:30 44.4 °F 39.6 °F 30.37 in WSW 2 mph 3 mph 83% 0.00 in 0 W/m2
19:40 43.7 °F 38.9 °F 30.38 in West 1 mph 3 mph 83% 0.00 in 0 W/m2
19:50 43.2 °F 38.7 °F 30.37 in West 1 mph 3 mph 84% 0.00 in 0 W/m2
20:00 42.8 °F 38.3 °F 30.37 in WSW 1 mph 2 mph 84% 0.00 in 0 W/m2
20:10 42.3 °F 38.1 °F 30.37 in Calm   2 mph 85% 0.00 in 0 W/m2
20:20 41.5 °F 37.4 °F 30.37 in WSW 2 mph 4 mph 85% 0.00 in 0 W/m2
20:30 41 °F 37.1 °F 30.37 in West 3 mph 5 mph 86% 0.00 in 0 W/m2
20:40 40.6 °F 36.8 °F 30.38 in West 2 mph 4 mph 86% 0.00 in 0 W/m2
20:50 40.1 °F 36.2 °F 30.38 in West 3 mph 5 mph 86% 0.00 in 0 W/m2
21:00 39.7 °F 36.5 °F 30.38 in West 3 mph 5 mph 88% 0.00 in 0 W/m2
21:10 39.6 °F 36.3 °F 30.38 in West 3 mph 6 mph 88% 0.00 in 0 W/m2
21:20 39.2 °F 35.9 °F 30.38 in West 2 mph 5 mph 88% 0.00 in 0 W/m2
21:30 38.8 °F 35.6 °F 30.38 in West 5 mph 6 mph 88% 0.00 in 0 W/m2
21:40 38.7 °F 35.7 °F 30.38 in West 2 mph 5 mph 89% 0.00 in 0 W/m2
21:50 38.3 °F 35 °F 30.38 in West 2 mph 3 mph 88% 0.00 in 0 W/m2
22:00 37.8 °F 34.8 °F 30.38 in West 2 mph 5 mph 89% 0.00 in 0 W/m2
22:10 37.6 °F 34.6 °F 30.38 in Calm   4 mph 89% 0.00 in 0 W/m2
22:20 37.2 °F 34.3 °F 30.39 in West 1 mph 2 mph 89% 0.00 in 0 W/m2
22:30 37 °F 34.1 °F 30.39 in Calm   2 mph 89% 0.00 in 0 W/m2
22:40 36.9 °F 34.2 °F 30.39 in Calm   2 mph 90% 0.00 in 0 W/m2
22:50 36.7 °F 34.3 °F 30.39 in Calm   2 mph 91% 0.00 in 0 W/m2
23:00 36.5 °F 34.1 °F 30.39 in Calm   2 mph 91% 0.00 in 0 W/m2
23:10 36.3 °F 33.9 °F 30.39 in SW 1 mph 5 mph 91% 0.00 in 0 W/m2
23:20 36.3 °F 34.5 °F 30.39 in NW 1 mph 4 mph 93% 0.00 in 0 W/m2
23:30 36.3 °F 34.5 °F 30.39 in ESE 2 mph 4 mph 93% 0.00 in 0 W/m2
23:40 36.3 °F 34.5 °F 30.39 in Calm   4 mph 93% 0.00 in 0 W/m2
23:50 36.1 °F 34.6 °F 30.39 in SSE 2 mph 3 mph 94% 0.00 in 0 W/m2
Knjazevac, Serbia
Compliments of Weather Underground - 2 mb